createdAt,value
2019-04-23T00:03:13.242Z,101084.80
2019-04-23T00:08:41.591Z,101077.00
2019-04-23T00:13:30.343Z,101089.84
2019-04-23T00:18:37.754Z,101094.22
2019-04-23T00:23:46.451Z,101084.63
2019-04-23T00:28:47.927Z,101090.50
2019-04-23T00:33:44.403Z,101076.28
2019-04-23T00:39:01.274Z,101082.80
2019-04-23T00:44:12.222Z,101070.89
2019-04-23T00:49:05.315Z,101071.97
2019-04-23T00:54:05.944Z,101061.80
2019-04-23T00:59:08.878Z,101064.42
2019-04-23T01:04:12.213Z,101066.89
2019-04-23T01:09:25.758Z,101065.48
2019-04-23T01:14:31.584Z,101064.42
2019-04-23T01:19:50.084Z,101068.94
2019-04-23T01:25:07.736Z,101058.05
2019-04-23T01:30:24.936Z,101054.61
2019-04-23T01:35:28.810Z,101050.05
2019-04-23T01:40:36.453Z,101055.33
2019-04-23T01:45:54.704Z,101057.67
2019-04-23T01:50:50.128Z,101051.47
2019-04-23T01:55:54.475Z,101043.95
2019-04-23T02:01:00.850Z,101031.03
2019-04-23T02:06:03.211Z,101038.72
2019-04-23T02:11:07.970Z,101026.30
2019-04-23T02:16:10.599Z,101018.19
2019-04-23T02:21:15.547Z,101015.18
2019-04-23T02:36:55.073Z,101012.45
2019-04-23T02:41:54.312Z,101018.31
2019-04-23T02:47:00.110Z,101010.13
2019-04-23T02:57:05.671Z,101008.86
2019-04-23T03:02:24.419Z,101017.17
2019-04-23T03:07:22.338Z,101012.27
2019-04-23T03:12:24.935Z,101011.39
2019-04-23T03:17:31.014Z,101000.97
2019-04-23T03:23:02.684Z,100999.34
2019-04-23T03:27:56.170Z,100982.48
2019-04-23T03:38:25.580Z,100988.81
2019-04-23T03:43:14.477Z,100981.18
2019-04-23T03:53:32.967Z,100985.02
2019-04-23T04:04:09.706Z,100986.59
2019-04-23T04:08:35.887Z,100975.55
2019-04-23T04:24:01.577Z,100980.24
2019-04-23T04:38:59.103Z,100981.23
2019-04-23T04:44:26.331Z,100975.58
2019-04-23T04:49:23.941Z,100981.05
2019-04-23T04:54:21.515Z,100976.27
2019-04-23T05:04:39.857Z,100969.64
2019-04-23T05:09:48.263Z,100960.41
2019-04-23T05:14:52.817Z,100956.13
2019-04-23T05:19:52.775Z,100956.33
2019-04-23T05:24:48.496Z,100957.16
2019-04-23T05:30:06.085Z,100953.52
2019-04-23T05:35:07.975Z,100957.95
2019-04-23T05:40:02.623Z,100966.79
2019-04-23T05:45:14.386Z,100949.13
2019-04-23T05:50:18.608Z,100951.11
2019-04-23T05:55:13.603Z,100947.34
2019-04-23T06:00:23.633Z,100950.71
2019-04-23T06:05:34.153Z,100945.72
2019-04-23T06:10:33.982Z,100945.05
2019-04-23T06:15:37.001Z,100941.81
2019-04-23T06:20:48.739Z,100943.27
2019-04-23T06:31:01.683Z,100933.39
2019-04-23T06:36:05.893Z,100929.36
2019-04-23T06:41:13.212Z,100924.41
2019-04-23T06:46:11.948Z,100913.69
2019-04-23T06:51:22.345Z,100914.81
2019-04-23T06:56:24.686Z,100915.37
2019-04-23T07:01:29.484Z,100901.16
2019-04-23T07:06:56.781Z,100900.05
2019-04-23T07:11:48.177Z,100906.45
2019-04-23T07:16:38.559Z,100887.36
2019-04-23T07:21:55.889Z,100892.20
2019-04-23T07:26:49.365Z,100889.86
2019-04-23T07:31:59.307Z,100880.31
2019-04-23T07:37:05.196Z,100869.75
2019-04-23T07:42:37.285Z,100867.86
2019-04-23T07:48:08.119Z,100855.55
2019-04-23T07:53:17.279Z,100855.50
2019-04-23T07:58:17.283Z,100846.12
2019-04-23T08:13:33.647Z,100830.60
2019-04-23T08:18:29.973Z,100833.40
2019-04-23T08:24:01.997Z,100833.23
2019-04-23T08:29:06.497Z,100827.48
2019-04-23T08:34:18.636Z,100832.38
2019-04-23T08:39:12.258Z,100807.21
2019-04-23T08:44:46.182Z,100816.79
2019-04-23T08:49:50.627Z,100804.22
2019-04-23T08:59:50.296Z,100815.37
2019-04-23T09:05:00.763Z,100799.34
2019-04-23T09:10:08.380Z,100795.80
2019-04-23T09:15:13.026Z,100784.05
2019-04-23T09:25:37.327Z,100771.57
2019-04-23T09:35:42.764Z,100769.25
2019-04-23T09:41:08.444Z,100763.61
2019-04-23T09:46:12.431Z,100764.85
2019-04-23T09:51:10.199Z,100750.94
2019-04-23T09:56:14.111Z,100750.93
2019-04-23T10:01:26.489Z,100737.33
2019-04-23T10:06:12.448Z,100729.09
2019-04-23T10:11:11.718Z,100719.36
2019-04-23T10:16:17.253Z,100706.17
2019-04-23T10:21:23.823Z,100691.74
2019-04-23T10:26:28.205Z,100700.33
2019-04-23T10:31:31.611Z,100690.59
2019-04-23T10:36:36.172Z,100680.55
2019-04-23T10:41:42.260Z,100681.03
2019-04-23T10:47:30.528Z,100665.92
2019-04-23T10:52:36.369Z,100670.74
2019-04-23T10:57:36.094Z,100649.25
2019-04-23T11:02:51.330Z,100656.16
2019-04-23T11:07:42.088Z,100653.61
2019-04-23T11:13:10.822Z,100656.12
2019-04-23T11:18:17.398Z,100648.84
2019-04-23T11:23:04.908Z,100619.84
2019-04-23T11:28:20.731Z,100638.39
2019-04-23T11:33:19.417Z,100634.48
2019-04-23T11:43:34.230Z,100625.92
2019-04-23T11:48:50.805Z,100620.57
2019-04-23T11:58:46.916Z,100606.54
2019-04-23T12:14:35.215Z,100600.56
2019-04-23T12:29:47.555Z,100575.39
2019-04-23T12:35:01.547Z,100565.94
2019-04-23T12:40:12.899Z,100554.55
2019-04-23T12:45:18.554Z,100556.95
2019-04-23T12:50:38.792Z,100550.52
2019-04-23T13:00:22.463Z,100546.21
2019-04-23T13:15:34.745Z,100529.45
2019-04-23T13:25:59.731Z,100508.55
2019-04-23T13:31:08.525Z,100510.22
2019-04-23T13:41:20.400Z,100490.14
2019-04-23T13:46:17.805Z,100498.72
2019-04-23T13:51:26.064Z,100486.22
2019-04-23T14:01:46.929Z,100472.17
2019-04-23T14:06:42.592Z,100467.80
2019-04-23T14:11:40.114Z,100469.89
2019-04-23T14:17:00.246Z,100450.56
2019-04-23T14:22:07.073Z,100450.83
2019-04-23T14:27:09.423Z,100435.80
2019-04-23T14:32:15.605Z,100418.38
2019-04-23T14:37:17.624Z,100422.46
2019-04-23T14:42:30.942Z,100431.64
2019-04-23T14:47:27.969Z,100429.03
2019-04-23T14:52:38.917Z,100405.56
2019-04-23T15:02:48.286Z,100386.03
2019-04-23T15:07:42.111Z,100390.61
2019-04-23T15:12:52.064Z,100388.96
2019-04-23T15:17:55.673Z,100378.69
2019-04-23T15:28:06.545Z,100369.53
2019-04-23T15:33:19.914Z,100374.86
2019-04-23T15:38:40.063Z,100369.75
2019-04-23T15:43:22.575Z,100358.92
2019-04-23T15:48:31.871Z,100356.94
2019-04-23T15:53:25.975Z,100337.44
2019-04-23T15:58:46.180Z,100337.95
2019-04-23T16:03:15.596Z,100332.55
2019-04-23T16:09:01.629Z,100328.89
2019-04-23T16:19:24.754Z,100330.54
2019-04-23T16:24:20.583Z,100320.95
2019-04-23T16:29:47.927Z,100320.67
2019-04-23T16:34:48.903Z,100321.23
2019-04-23T16:40:01.610Z,100321.89
2019-04-23T16:55:29.432Z,100294.89
2019-04-23T17:05:23.686Z,100298.75
2019-04-23T17:10:38.509Z,100295.30
2019-04-23T17:15:48.162Z,100289.31
2019-04-23T17:20:46.775Z,100280.70
2019-04-23T17:25:48.557Z,100278.16
2019-04-23T17:31:18.864Z,100278.59
2019-04-23T17:42:12.514Z,100272.76
2019-04-23T17:47:14.078Z,100271.23
2019-04-23T17:52:20.326Z,100277.60
2019-04-23T17:57:26.437Z,100270.33
2019-04-23T18:02:51.670Z,100272.48
2019-04-23T18:12:51.805Z,100279.71
2019-04-23T18:23:00.448Z,100277.87
2019-04-23T18:33:49.145Z,100280.34
2019-04-23T18:38:24.897Z,100283.48
2019-04-23T18:43:29.751Z,100280.48
2019-04-23T19:04:20.067Z,100281.81
2019-04-23T19:09:47.453Z,100281.81
2019-04-23T19:14:56.153Z,100289.03
2019-04-23T19:24:48.368Z,100286.91
2019-04-23T19:30:07.082Z,100288.66
2019-04-23T19:35:04.131Z,100282.77
2019-04-23T19:40:10.047Z,100295.55
2019-04-23T19:45:24.513Z,100285.70
2019-04-23T19:50:34.386Z,100269.64
2019-04-23T19:55:32.837Z,100283.25
2019-04-23T20:01:01.655Z,100287.13
2019-04-23T20:05:46.810Z,100274.70
2019-04-23T20:10:46.421Z,100258.22
2019-04-23T20:16:05.727Z,100277.92
2019-04-23T20:32:27.328Z,100280.48
2019-04-23T20:47:08.559Z,100265.76
2019-04-23T20:52:07.339Z,100276.66
2019-04-23T21:03:18.135Z,100271.80
2019-04-23T21:28:38.184Z,100262.78
2019-04-23T21:33:35.241Z,100258.08
2019-04-23T21:38:58.679Z,100252.45
2019-04-23T21:44:05.650Z,100236.19
2019-04-23T21:49:08.910Z,100231.02
2019-04-23T21:53:56.883Z,100240.97
2019-04-23T21:59:06.842Z,100231.35
2019-04-23T22:24:21.578Z,100206.09
2019-04-23T22:29:33.081Z,100204.03
2019-04-23T22:34:38.932Z,100202.61
2019-04-23T22:39:46.543Z,100196.91
2019-04-23T22:45:07.522Z,100193.59
2019-04-23T22:50:02.713Z,100185.94
2019-04-23T23:00:17.758Z,100180.22
2019-04-23T23:05:22.430Z,100173.00
2019-04-23T23:10:20.084Z,100174.94
2019-04-23T23:15:24.160Z,100174.69
2019-04-23T23:20:31.184Z,100170.38
2019-04-23T23:25:30.872Z,100160.30
2019-04-23T23:30:45.271Z,100155.95
2019-04-23T23:35:44.419Z,100156.53
2019-04-23T23:40:57.450Z,100157.85
2019-04-23T23:46:03.354Z,100157.52
2019-04-23T23:56:10.931Z,100147.41
